Time,TemperatureF,DewpointF,PressureIn,WindDirection,WindDirectionDegrees,WindSpeedMPH,WindSpeedGustMPH,Humidity,HourlyPrecipIn,Conditions,Clouds,dailyrainin,SolarRadiationWatts/m^2,SoftwareType,DateUTC
2013-09-27 01:50:00,41.0,40.0,-100.00,ENE,77,3.0,4.0,96,0.04,,,-99.99,0.000000,,2013-09-27 07:50:00,
2013-09-27 01:53:00,41.0,40.0,-100.00,SE,138,3.0,5.0,96,0.04,,,-99.99,0.000000,,2013-09-27 07:53:00,
2013-09-27 02:22:00,41.0,40.0,-100.00,ENE,77,3.0,4.0,96,0.04,,,-99.99,0.000000,,2013-09-27 08:22:00,
2013-09-27 02:32:00,41.0,40.0,-100.00,ENE,77,3.0,4.0,96,0.04,,,-99.99,0.000000,,2013-09-27 08:32:00,
2013-09-27 02:42:00,41.0,40.0,-100.00,ENE,77,3.0,4.0,96,0.04,,,-99.99,0.000000,,2013-09-27 08:42:00,
2013-09-27 05:22:00,39.0,37.0,-100.00,WSW,238,8.0,14.0,92,0.04,,,-99.99,0.000000,,2013-09-27 11:22:00,
2013-09-27 05:52:00,40.0,37.0,-100.00,WSW,239,8.0,15.0,89,0.04,,,-99.99,0.000000,,2013-09-27 11:52:00,
2013-09-27 06:50:00,39.0,37.0,-100.00,SW,228,5.0,8.0,92,0.03,,,-99.99,0.000000,,2013-09-27 12:50:00,
2013-09-27 07:21:00,39.0,37.0,-100.00,SW,228,5.0,8.0,92,0.03,,,-99.99,0.000000,,2013-09-27 13:21:00,
2013-09-27 07:32:00,39.0,37.0,-100.00,SW,228,5.0,8.0,92,0.03,,,-99.99,0.000000,,2013-09-27 13:32:00,
2013-09-27 07:42:00,39.0,37.0,-100.00,SW,228,5.0,8.0,92,0.03,,,-99.99,0.000000,,2013-09-27 13:42:00,
2013-09-27 09:54:00,39.0,38.0,-100.00,SSW,201,4.0,6.0,95,0.02,,,-99.99,42.000000,,2013-09-27 15:54:00,
2013-09-27 10:53:00,38.0,37.0,-100.00,SE,124,4.0,5.0,96,0.03,,,-99.99,36.000000,,2013-09-27 16:53:00,
2013-09-27 11:50:00,43.0,41.0,-100.00,SW,233,3.0,6.0,92,0.04,,,-99.99,232.000000,,2013-09-27 17:50:00,
2013-09-27 12:21:00,43.0,41.0,-100.00,SW,233,3.0,6.0,92,0.04,,,-99.99,232.000000,,2013-09-27 18:21:00,
2013-09-27 12:33:00,43.0,41.0,-100.00,SW,233,3.0,6.0,92,0.04,,,-99.99,232.000000,,2013-09-27 18:33:00,
2013-09-27 12:43:00,43.0,41.0,-100.00,SW,233,3.0,6.0,92,0.04,,,-99.99,232.000000,,2013-09-27 18:43:00,
2013-09-27 13:53:00,41.0,39.0,-100.00,NW,321,8.0,12.0,91,0.03,,,-99.99,270.000000,,2013-09-27 19:53:00,
2013-09-27 14:22:00,41.0,39.0,-100.00,NW,310,5.0,10.0,91,0.00,,,-99.99,193.000000,,2013-09-27 20:22:00,
2013-09-27 16:50:00,47.0,38.0,-100.00,SE,129,4.0,7.0,70,0.01,,,-99.99,380.000000,,2013-09-27 22:50:00,
2013-09-27 17:22:00,47.0,38.0,-100.00,SE,129,4.0,7.0,70,0.01,,,-99.99,380.000000,,2013-09-27 23:22:00,
2013-09-27 17:34:00,47.0,38.0,-100.00,SE,129,4.0,7.0,70,0.01,,,-99.99,380.000000,,2013-09-27 23:34:00,
2013-09-27 17:43:00,47.0,38.0,-100.00,SE,129,4.0,7.0,70,0.01,,,-99.99,380.000000,,2013-09-27 23:43:00,
2013-09-27 21:50:00,38.0,33.0,-100.00,SSE,153,5.0,7.0,84,0.00,,,-99.99,0.000000,,2013-09-28 03:50:00,
2013-09-27 21:55:00,38.0,34.0,-100.00,SSE,168,5.0,6.0,84,0.00,,,-99.99,0.000000,,2013-09-28 03:55:00,
2013-09-27 22:24:00,38.0,33.0,-100.00,SSE,153,5.0,7.0,84,0.00,,,-99.99,0.000000,,2013-09-28 04:24:00,
2013-09-27 22:34:00,38.0,33.0,-100.00,SSE,153,5.0,7.0,84,0.00,,,-99.99,0.000000,,2013-09-28 04:34:00,
2013-09-27 22:43:00,38.0,33.0,-100.00,SSE,153,5.0,7.0,84,0.00,,,-99.99,0.000000,,2013-09-28 04:43:00,